Time;durP1;ratioP1;P1;durP2;ratioP2;P2;SDS_P1;SDS_P2;PMS_P1;PMS_P2;Temp;Humidity;BMP_temperature;BMP_pressure;BME280_temperature;BME280_humidity;BME280_pressure;Samples;Min_cycle;Max_cycle;Signal;HPM_P1;HPM_P2
2021/03/28 00:01:40;;;;;;;3.90;3.23;;;3.20;99.90;;;;;;5081826;28;20633;-63
2021/03/28 00:04:09;;;;;;;4.33;3.00;;;3.10;99.90;;;;;;5081784;28;20582;-62
2021/03/28 00:06:51;;;;;;;5.80;3.70;;;3.30;99.90;;;;;;5086888;28;20192;-63
2021/03/28 00:09:22;;;;;;;7.77;5.50;;;3.30;99.90;;;;;;5083836;28;20228;-63
2021/03/28 00:12:05;;;;;;;21.07;13.53;;;3.30;99.90;;;;;;5075931;28;20198;-62
2021/03/28 00:14:45;;;;;;;16.43;11.23;;;3.30;99.90;;;;;;5094961;28;20185;-63
2021/03/28 00:17:29;;;;;;;15.43;9.07;;;3.20;99.90;;;;;;5094670;28;20676;-62
2021/03/28 00:19:59;;;;;;;15.97;10.40;;;3.20;99.90;;;;;;5094879;28;20276;-64
2021/03/28 00:22:31;;;;;;;17.03;9.13;;;3.20;99.90;;;;;;5095130;28;20184;-63
2021/03/28 00:25:05;;;;;;;10.27;6.97;;;3.20;99.90;;;;;;5094883;28;20286;-63
2021/03/28 00:27:40;;;;;;;14.77;9.27;;;3.10;99.90;;;;;;5094872;28;20182;-62
2021/03/28 00:30:21;;;;;;;9.57;6.90;;;3.00;99.90;;;;;;5095076;28;20185;-62
2021/03/28 00:32:54;;;;;;;7.00;5.60;;;3.00;99.90;;;;;;5094552;28;20843;-62
2021/03/28 00:35:25;;;;;;;6.67;4.67;;;3.00;99.90;;;;;;5094642;28;20612;-64
2021/03/28 00:38:03;;;;;;;8.17;5.70;;;3.00;99.90;;;;;;5094436;28;20287;-63
2021/03/28 00:40:31;;;;;;;5.17;4.27;;;3.10;99.90;;;;;;5092973;28;20295;-63
2021/03/28 00:43:17;;;;;;;4.60;3.97;;;3.20;99.90;;;;;;5094523;28;20199;-63
2021/03/28 00:45:56;;;;;;;3.97;3.33;;;3.20;99.90;;;;;;5094517;28;20184;-62
2021/03/28 00:48:27;;;;;;;5.37;3.50;;;3.20;99.90;;;;;;5094437;28;20215;-63
2021/03/28 00:50:58;;;;;;;5.10;3.30;;;3.20;99.90;;;;;;5094385;28;20199;-63
2021/03/28 00:53:47;;;;;;;7.97;3.60;;;3.20;99.90;;;;;;5094395;28;20206;-62
2021/03/28 00:56:19;;;;;;;5.93;3.57;;;3.20;99.90;;;;;;5091073;28;20288;-61
2021/03/28 00:58:52;;;;;;;5.40;3.50;;;3.30;99.90;;;;;;5094020;28;20188;-62
2021/03/28 01:01:28;;;;;;;5.40;3.70;;;3.30;99.90;;;;;;5091386;28;20204;-64
2021/03/28 01:04:34;;;;;;;6.27;3.47;;;3.30;99.90;;;;;;5092589;28;20191;-63
2021/03/28 01:07:17;;;;;;;3.83;3.43;;;3.20;99.90;;;;;;5093901;28;20227;-61
2021/03/28 01:10:17;;;;;;;3.77;3.37;;;3.20;99.90;;;;;;5093965;28;20269;-62
2021/03/28 01:13:10;;;;;;;3.77;3.27;;;3.30;99.90;;;;;;5093470;28;20191;-62
2021/03/28 01:16:16;;;;;;;4.13;3.00;;;3.20;99.90;;;;;;5093458;28;20212;-62
2021/03/28 01:18:55;;;;;;;5.37;3.53;;;3.10;99.90;;;;;;5073364;28;20235;-63
2021/03/28 01:21:37;;;;;;;5.00;3.53;;;3.10;99.90;;;;;;5073634;28;20582;-64
2021/03/28 01:24:11;;;;;;;4.83;3.10;;;3.10;99.90;;;;;;5073442;28;20215;-62
2021/03/28 01:27:04;;;;;;;5.27;3.80;;;3.00;99.90;;;;;;5073082;28;20224;-65
2021/03/28 01:29:39;;;;;;;6.10;4.70;;;3.00;99.90;;;;;;5073346;28;20181;-62
2021/03/28 01:32:16;;;;;;;3.87;3.40;;;3.00;99.90;;;;;;5072528;28;20193;-62
2021/03/28 01:34:48;;;;;;;6.07;4.00;;;3.10;99.90;;;;;;5073000;28;20690;-62
2021/03/28 01:37:20;;;;;;;5.50;3.90;;;3.00;99.90;;;;;;5072902;28;20305;-63
2021/03/28 01:39:55;;;;;;;4.63;3.33;;;3.00;99.90;;;;;;5072928;28;20250;-63
2021/03/28 01:42:42;;;;;;;5.07;3.80;;;2.90;99.90;;;;;;5072585;28;20189;-62
2021/03/28 01:45:19;;;;;;;5.20;3.83;;;2.90;99.90;;;;;;5072283;28;20556;-62
2021/03/28 01:47:57;;;;;;;5.50;3.53;;;2.80;99.90;;;;;;5072482;28;20625;-62
2021/03/28 01:50:33;;;;;;;3.77;3.37;;;2.70;99.90;;;;;;5073041;28;20284;-63
2021/03/28 01:53:17;;;;;;;5.53;3.50;;;2.70;99.90;;;;;;5072967;28;20272;-62
2021/03/28 01:55:55;;;;;;;5.23;4.67;;;2.60;99.90;;;;;;5072656;28;20277;-62
2021/03/28 01:58:32;;;;;;;5.00;4.30;;;2.60;99.90;;;;;;5072611;28;20207;-62
2021/03/28 02:01:09;;;;;;;7.30;5.57;;;2.60;99.90;;;;;;5072618;28;20280;-62
2021/03/28 02:03:46;;;;;;;5.80;4.60;;;2.50;99.90;;;;;;5072255;28;20311;-62
2021/03/28 02:06:45;;;;;;;7.00;5.20;;;2.40;99.90;;;;;;5072843;28;20189;-63
2021/03/28 02:09:25;;;;;;;8.03;4.93;;;2.30;99.90;;;;;;5068933;28;20200;-62
2021/03/28 02:12:04;;;;;;;6.10;4.90;;;2.40;99.90;;;;;;5072411;28;20733;-63
2021/03/28 02:14:41;;;;;;;7.37;5.50;;;2.30;99.90;;;;;;5072573;28;20188;-62
2021/03/28 02:17:21;;;;;;;5.83;4.57;;;2.30;99.90;;;;;;5082059;28;20295;-63
2021/03/28 02:20:01;;;;;;;6.17;4.13;;;2.30;99.90;;;;;;5099238;28;20219;-62
2021/03/28 02:22:39;;;;;;;4.90;4.37;;;2.20;99.90;;;;;;5098916;28;20223;-62
2021/03/28 02:25:11;;;;;;;7.20;4.27;;;2.10;99.90;;;;;;5092731;28;20718;-62
2021/03/28 02:27:46;;;;;;;5.07;3.83;;;2.10;99.90;;;;;;5092674;28;20619;-62
2021/03/28 02:30:22;;;;;;;4.53;4.00;;;2.10;99.90;;;;;;5092489;28;20214;-63
2021/03/28 02:32:59;;;;;;;5.80;3.77;;;2.20;99.90;;;;;;5092366;28;20284;-62
2021/03/28 02:36:01;;;;;;;6.23;4.63;;;2.20;99.90;;;;;;5092739;28;20299;-61
2021/03/28 02:39:02;;;;;;;6.30;4.03;;;2.20;99.90;;;;;;5092545;28;20587;-62
2021/03/28 02:41:51;;;;;;;4.43;3.67;;;2.30;99.90;;;;;;5092393;28;20214;-62
2021/03/28 02:44:31;;;;;;;5.47;3.53;;;2.20;99.90;;;;;;5092559;28;20222;-62
2021/03/28 02:47:13;;;;;;;7.47;3.90;;;2.20;99.90;;;;;;5092308;28;20635;-62
2021/03/28 02:50:01;;;;;;;5.40;3.87;;;2.20;99.90;;;;;;5092777;28;20273;-62
2021/03/28 02:52:48;;;;;;;3.97;3.53;;;2.20;99.90;;;;;;5092260;28;20279;-62
2021/03/28 02:55:32;;;;;;;4.53;3.47;;;2.20;99.90;;;;;;5092320;28;20644;-62
2021/03/28 02:58:11;;;;;;;5.37;3.50;;;2.30;99.90;;;;;;5092364;28;20201;-62
2021/03/28 03:00:56;;;;;;;4.80;3.20;;;2.40;99.90;;;;;;5092206;28;20227;-62
2021/03/28 03:03:39;;;;;;;5.63;3.63;;;2.50;99.90;;;;;;5092396;28;20226;-62
2021/03/28 03:06:30;;;;;;;5.10;3.27;;;2.50;99.90;;;;;;5092164;28;20233;-63
2021/03/28 03:09:08;;;;;;;4.17;3.23;;;2.40;99.90;;;;;;5079045;28;20293;-62
2021/03/28 03:12:10;;;;;;;4.07;3.27;;;2.40;99.90;;;;;;5092090;28;20685;-62
2021/03/28 03:14:56;;;;;;;6.83;3.50;;;2.30;99.90;;;;;;5087956;28;20654;-62
2021/03/28 03:17:54;;;;;;;5.20;3.37;;;2.30;99.90;;;;;;5092113;28;20237;-62
2021/03/28 03:21:11;;;;;;;4.67;3.47;;;2.30;99.90;;;;;;5092438;28;20191;-61
2021/03/28 03:24:20;;;;;;;5.57;3.43;;;2.30;99.90;;;;;;5092396;28;20294;-62
2021/03/28 03:27:20;;;;;;;4.63;3.50;;;2.20;99.90;;;;;;5093934;28;20236;-62
2021/03/28 03:30:23;;;;;;;4.10;3.70;;;2.20;99.90;;;;;;5095570;28;20298;-62
2021/03/28 03:33:26;;;;;;;5.80;3.70;;;2.50;99.90;;;;;;5093909;28;20641;-61
2021/03/28 03:36:10;;;;;;;4.73;3.40;;;2.50;99.90;;;;;;5095964;28;20191;-58
2021/03/28 03:38:55;;;;;;;6.57;3.80;;;2.40;99.90;;;;;;5095503;28;20624;-57
2021/03/28 03:41:40;;;;;;;5.07;3.73;;;2.40;99.90;;;;;;5095471;28;20260;-56
2021/03/28 03:44:23;;;;;;;8.17;4.00;;;2.30;99.90;;;;;;5095193;28;20286;-58
2021/03/28 03:47:13;;;;;;;6.47;3.90;;;2.50;99.90;;;;;;5095663;28;20208;-57
2021/03/28 03:50:13;;;;;;;5.80;4.40;;;2.60;99.90;;;;;;5095562;28;20212;-57
2021/03/28 03:53:05;;;;;;;8.13;4.90;;;2.70;99.90;;;;;;5095472;28;20183;-57
2021/03/28 03:55:43;;;;;;;5.20;4.50;;;2.60;99.90;;;;;;5095396;28;20190;-58
2021/03/28 03:58:24;;;;;;;5.53;3.80;;;2.60;99.90;;;;;;5095145;28;20245;-56
2021/03/28 04:01:00;;;;;;;6.03;4.30;;;2.70;99.90;;;;;;5095052;28;20184;-57
2021/03/28 04:03:33;;;;;;;6.03;4.47;;;2.60;99.90;;;;;;5095063;28;20271;-56
2021/03/28 04:06:20;;;;;;;5.07;3.67;;;2.70;99.90;;;;;;5095245;28;20223;-55
2021/03/28 04:08:59;;;;;;;5.13;3.43;;;2.80;99.90;;;;;;5094859;28;20525;-56
2021/03/28 04:11:45;;;;;;;5.20;3.83;;;2.80;99.90;;;;;;5095060;28;20185;-56
2021/03/28 04:14:51;;;;;;;6.00;3.57;;;2.70;99.90;;;;;;5094286;28;20188;-57
2021/03/28 04:17:45;;;;;;;5.23;3.50;;;2.50;99.90;;;;;;5090897;28;20258;-55
2021/03/28 04:20:18;;;;;;;4.83;3.50;;;2.40;99.90;;;;;;5094923;28;20289;-57
2021/03/28 04:23:21;;;;;;;5.10;4.27;;;2.30;99.90;;;;;;5094877;28;20211;-58
2021/03/28 04:26:00;;;;;;;5.37;3.60;;;2.50;99.90;;;;;;5094338;28;20824;-57
2021/03/28 04:28:45;;;;;;;5.47;4.40;;;2.60;99.90;;;;;;5094460;28;20219;-59
2021/03/28 04:31:58;;;;;;;7.50;3.73;;;2.60;99.90;;;;;;5094402;28;20598;-58
2021/03/28 04:34:28;;;;;;;5.70;3.90;;;2.50;99.90;;;;;;5094542;28;20277;-55
2021/03/28 04:37:14;;;;;;;6.97;4.23;;;2.70;99.90;;;;;;5094324;28;20195;-58
2021/03/28 04:40:10;;;;;;;5.57;4.47;;;2.70;99.90;;;;;;5094480;28;20199;-57
2021/03/28 04:43:10;;;;;;;7.03;4.23;;;2.70;99.90;;;;;;5094282;28;20292;-57
2021/03/28 04:46:09;;;;;;;4.30;3.80;;;2.70;99.90;;;;;;5094037;28;20265;-57
2021/03/28 04:49:01;;;;;;;5.50;3.70;;;2.70;99.90;;;;;;5094181;28;20303;-57
2021/03/28 04:51:59;;;;;;;6.03;4.00;;;2.80;99.90;;;;;;5094310;28;20220;-59
2021/03/28 04:55:00;;;;;;;6.17;4.27;;;2.90;99.90;;;;;;5094178;28;20282;-57
2021/03/28 04:57:51;;;;;;;5.93;3.80;;;2.90;99.90;;;;;;5093685;28;20307;-57
2021/03/28 05:00:57;;;;;;;5.37;3.77;;;2.90;99.90;;;;;;5093534;28;20235;-56
2021/03/28 05:04:07;;;;;;;5.23;3.90;;;3.00;99.90;;;;;;5093381;28;20716;-57
2021/03/28 05:07:13;;;;;;;5.87;3.80;;;3.00;99.90;;;;;;5030991;28;20269;-57
2021/03/28 05:09:58;;;;;;;5.47;3.97;;;3.00;99.90;;;;;;5093531;28;20730;-58
2021/03/28 05:13:14;;;;;;;7.53;4.03;;;2.90;99.90;;;;;;5090571;28;20207;-56
2021/03/28 05:16:09;;;;;;;5.33;4.53;;;3.00;99.90;;;;;;5093712;28;20287;-56
2021/03/28 05:19:08;;;;;;;6.87;4.20;;;3.10;99.90;;;;;;5073094;28;20211;-56
2021/03/28 05:21:56;;;;;;;4.90;3.93;;;3.20;99.90;;;;;;5073223;28;20635;-57
2021/03/28 05:24:51;;;;;;;7.40;4.20;;;3.20;99.90;;;;;;5073123;28;20196;-57
2021/03/28 05:27:39;;;;;;;6.33;4.30;;;3.20;99.90;;;;;;5063121;28;20231;-56
2021/03/28 05:30:42;;;;;;;5.70;4.40;;;3.20;99.90;;;;;;5073119;28;20272;-58
2021/03/28 05:33:25;;;;;;;8.30;4.33;;;3.30;99.90;;;;;;5051831;28;20207;-56
2021/03/28 05:36:39;;;;;;;5.33;3.60;;;3.40;99.90;;;;;;5073046;28;20678;-56
2021/03/28 05:39:35;;;;;;;6.40;3.90;;;3.40;99.90;;;;;;5059677;28;20315;-57
2021/03/28 05:42:30;;;;;;;6.83;4.90;;;3.40;99.90;;;;;;5070557;28;20215;-56
2021/03/28 05:45:20;;;;;;;5.03;4.20;;;3.50;99.90;;;;;;5073041;28;20279;-55
2021/03/28 05:48:09;;;;;;;5.70;4.03;;;3.60;99.90;;;;;;5072838;28;20249;-56
2021/03/28 05:50:46;;;;;;;6.90;3.93;;;3.60;99.90;;;;;;5072531;28;20193;-56
2021/03/28 05:53:55;;;;;;;6.07;4.23;;;3.70;99.90;;;;;;5073070;28;20191;-55
2021/03/28 05:56:43;;;;;;;6.07;3.97;;;3.70;99.90;;;;;;5072510;28;20616;-56
2021/03/28 05:59:33;;;;;;;5.47;4.27;;;3.70;99.90;;;;;;5072385;28;20208;-56
2021/03/28 06:02:32;;;;;;;5.83;3.87;;;3.70;99.90;;;;;;5072883;28;20268;-55
2021/03/28 06:05:36;;;;;;;5.27;4.00;;;3.70;99.90;;;;;;5072940;28;20283;-55
2021/03/28 06:08:42;;;;;;;6.67;4.10;;;3.80;99.90;;;;;;5072631;28;20609;-55
2021/03/28 06:11:58;;;;;;;8.10;4.80;;;4.00;99.90;;;;;;5072476;28;20186;-56
2021/03/28 06:14:46;;;;;;;6.17;4.40;;;4.20;99.90;;;;;;5055718;28;20207;-57
2021/03/28 06:17:26;;;;;;;7.80;4.13;;;4.50;99.90;;;;;;5082114;28;20200;-55
2021/03/28 06:20:17;;;;;;;5.53;4.13;;;4.80;99.90;;;;;;5092487;28;20207;-56
2021/03/28 06:23:21;;;;;;;8.10;3.87;;;5.00;99.90;;;;;;5092792;28;20185;-59
2021/03/28 06:26:24;;;;;;;4.97;4.03;;;5.10;99.90;;;;;;5092100;28;20261;-57
2021/03/28 06:29:27;;;;;;;5.83;3.87;;;5.10;99.90;;;;;;5092603;28;20181;-56
2021/03/28 06:32:22;;;;;;;6.07;4.00;;;5.20;99.90;;;;;;5092583;28;20200;-58
2021/03/28 06:35:19;;;;;;;4.67;4.13;;;5.30;99.90;;;;;;5092527;28;20656;-57
2021/03/28 06:38:29;;;;;;;4.27;3.80;;;5.40;99.90;;;;;;5092984;28;20318;-56
2021/03/28 06:41:10;;;;;;;7.83;4.40;;;5.50;99.90;;;;;;5094493;28;20215;-57
2021/03/28 06:44:04;;;;;;;5.90;4.67;;;5.50;99.90;;;;;;5097806;28;20217;-58
2021/03/28 06:47:01;;;;;;;5.63;4.00;;;5.50;99.90;;;;;;5096504;28;20256;-55
2021/03/28 06:50:03;;;;;;;6.97;4.77;;;5.60;99.90;;;;;;5070714;28;20618;-57
2021/03/28 06:52:55;;;;;;;6.53;4.00;;;5.70;99.90;;;;;;5092718;28;20217;-55
2021/03/28 06:55:41;;;;;;;5.67;4.17;;;5.70;99.90;;;;;;5089055;28;20208;-58
2021/03/28 06:58:40;;;;;;;6.33;4.30;;;5.80;99.90;;;;;;5092336;28;20400;-56
2021/03/28 07:01:56;;;;;;;6.27;4.17;;;6.00;99.90;;;;;;5093730;28;20185;-55
2021/03/28 07:05:11;;;;;;;5.20;3.57;;;6.20;99.90;;;;;;5067601;28;20714;-57
2021/03/28 07:08:14;;;;;;;5.13;3.73;;;6.30;99.90;;;;;;5095923;28;20718;-55
2021/03/28 07:10:56;;;;;;;5.53;3.87;;;6.40;99.90;;;;;;5076697;28;20205;-60
2021/03/28 07:13:48;;;;;;;5.63;4.40;;;6.30;99.90;;;;;;5095698;28;20272;-62
2021/03/28 07:16:51;;;;;;;7.33;4.40;;;6.40;99.90;;;;;;5095866;28;20606;-62
2021/03/28 07:19:36;;;;;;;5.67;3.83;;;6.50;99.90;;;;;;5095871;28;20291;-62
2021/03/28 07:22:23;;;;;;;6.47;4.30;;;6.70;99.90;;;;;;5095738;28;20279;-61
2021/03/28 07:25:22;;;;;;;9.30;5.67;;;6.80;99.90;;;;;;5094989;28;20278;-62
2021/03/28 07:28:27;;;;;;;8.13;4.70;;;6.90;99.90;;;;;;5095529;28;20187;-63
2021/03/28 07:31:22;;;;;;;6.17;4.03;;;6.90;99.90;;;;;;5095682;28;20207;-62
2021/03/28 07:34:17;;;;;;;7.57;4.87;;;7.00;99.90;;;;;;5095523;28;20270;-62
2021/03/28 07:37:29;;;;;;;5.93;4.37;;;7.10;99.90;;;;;;5095733;28;20202;-62
2021/03/28 07:40:30;;;;;;;7.10;4.07;;;7.30;99.90;;;;;;5095203;28;20187;-63
2021/03/28 07:43:25;;;;;;;8.77;4.87;;;7.40;99.90;;;;;;5078637;28;20293;-63
2021/03/28 07:46:20;;;;;;;6.33;4.27;;;7.60;99.90;;;;;;5095242;28;20203;-63
2021/03/28 07:49:27;;;;;;;7.60;4.00;;;7.70;99.90;;;;;;5094990;28;20294;-62
2021/03/28 07:52:17;;;;;;;7.50;3.83;;;7.70;99.90;;;;;;5094979;28;20276;-63
2021/03/28 07:55:13;;;;;;;6.33;4.43;;;7.60;99.90;;;;;;5095005;28;20184;-63
2021/03/28 07:58:25;;;;;;;9.10;5.23;;;7.60;99.90;;;;;;5094844;28;20295;-62
2021/03/28 08:01:25;;;;;;;7.23;4.70;;;7.60;99.90;;;;;;5094820;28;20511;-62
2021/03/28 08:04:21;;;;;;;6.00;4.50;;;7.70;99.90;;;;;;5072891;28;20677;-64
2021/03/28 08:07:04;;;;;;;9.27;4.37;;;7.90;99.90;;;;;;5083693;28;20296;-63
2021/03/28 08:10:00;;;;;;;6.17;4.30;;;8.30;99.90;;;;;;5085953;28;20295;-64
2021/03/28 08:12:40;;;;;;;7.37;4.60;;;8.50;99.90;;;;;;5085935;28;20283;-61
2021/03/28 08:15:27;;;;;;;6.97;4.37;;;8.60;99.90;;;;;;5079709;28;20450;-62
2021/03/28 08:17:59;;;;;;;7.47;4.50;;;8.70;99.90;;;;;;5082965;28;20335;-62
2021/03/28 08:20:51;;;;;;;5.90;4.67;;;8.90;99.90;;;;;;5085734;28;20196;-62
2021/03/28 08:24:15;;;;;;;7.67;4.67;;;9.00;99.90;;;;;;5083797;28;20275;-62
2021/03/28 08:27:06;;;;;;;9.60;4.97;;;8.90;99.90;;;;;;5094707;28;20259;-62
2021/03/28 08:29:50;;;;;;;6.83;4.07;;;8.90;99.90;;;;;;5088157;28;20228;-63
2021/03/28 08:32:50;;;;;;;10.30;4.00;;;8.90;99.90;;;;;;5081790;28;20559;-63
2021/03/28 08:35:35;;;;;;;8.93;4.60;;;8.90;99.90;;;;;;5084737;28;20207;-63
2021/03/28 08:38:42;;;;;;;6.83;4.13;;;9.10;99.90;;;;;;5086103;28;20216;-62
2021/03/28 08:41:33;;;;;;;8.07;3.93;;;9.30;99.90;;;;;;5085189;28;20625;-62
2021/03/28 08:44:31;;;;;;;7.03;4.27;;;9.40;99.90;;;;;;5086874;28;20206;-63
2021/03/28 08:47:34;;;;;;;5.97;3.80;;;9.50;99.90;;;;;;5087253;28;20196;-62
2021/03/28 08:50:15;;;;;;;6.33;3.90;;;9.60;99.90;;;;;;5094064;28;20188;-63
2021/03/28 08:53:14;;;;;;;7.10;4.20;;;9.60;99.90;;;;;;5094420;28;20279;-64
2021/03/28 08:56:22;;;;;;;5.33;3.90;;;9.70;99.90;;;;;;5093222;28;20208;-63
2021/03/28 08:58:54;;;;;;;8.40;4.27;;;10.10;99.90;;;;;;5094131;28;20204;-63
2021/03/28 09:01:34;;;;;;;8.80;3.47;;;10.20;99.90;;;;;;5093901;28;20711;-63
2021/03/28 09:04:12;;;;;;;8.40;3.60;;;10.40;99.90;;;;;;5093971;28;20184;-63
2021/03/28 09:06:48;;;;;;;6.60;3.40;;;10.50;99.90;;;;;;5093647;28;20563;-62
2021/03/28 09:09:27;;;;;;;8.67;3.90;;;10.60;99.90;;;;;;5093548;28;20275;-64
2021/03/28 09:12:02;;;;;;;7.77;3.83;;;10.60;99.90;;;;;;5082126;28;20285;-62
2021/03/28 09:15:11;;;;;;;5.43;3.73;;;10.50;99.90;;;;;;5072703;28;20258;-64
2021/03/28 09:17:49;;;;;;;6.23;3.73;;;10.70;99.90;;;;;;5068136;28;20299;-63
2021/03/28 09:20:44;;;;;;;7.57;3.93;;;10.80;99.90;;;;;;5076936;28;20228;-62
2021/03/28 09:23:42;;;;;;;8.93;3.90;;;10.80;99.90;;;;;;5079473;28;20275;-63
2021/03/28 09:26:28;;;;;;;6.17;3.40;;;10.80;99.90;;;;;;5071905;28;20235;-63
2021/03/28 09:29:08;;;;;;;11.37;4.20;;;11.00;99.90;;;;;;5072122;28;20235;-63
2021/03/28 09:31:50;;;;;;;10.00;3.23;;;11.10;99.90;;;;;;5089984;28;20640;-63
2021/03/28 09:34:35;;;;;;;9.23;4.00;;;11.20;99.90;;;;;;5093032;28;20184;-63
2021/03/28 09:37:13;;;;;;;8.40;3.70;;;11.30;99.90;;;;;;5093160;28;20203;-63
2021/03/28 09:39:52;;;;;;;6.63;3.10;;;11.20;99.90;;;;;;5092709;28;20226;-63
2021/03/28 09:42:46;;;;;;;8.10;3.20;;;11.20;99.90;;;;;;5092790;28;20191;-64
2021/03/28 09:45:46;;;;;;;8.83;4.00;;;11.10;99.90;;;;;;5092683;28;20284;-63
2021/03/28 09:48:58;;;;;;;9.57;3.80;;;11.10;99.90;;;;;;5092630;28;20520;-63
2021/03/28 09:51:50;;;;;;;6.27;3.10;;;11.30;99.90;;;;;;5093054;28;20706;-62
2021/03/28 09:54:32;;;;;;;7.20;3.10;;;11.20;99.90;;;;;;5087847;28;20949;-63
2021/03/28 09:57:11;;;;;;;9.03;3.70;;;11.20;99.90;;;;;;5078858;28;20196;-62
2021/03/28 10:00:22;;;;;;;9.40;3.73;;;11.20;99.90;;;;;;5074730;28;20220;-62
2021/03/28 10:03:00;;;;;;;7.67;3.47;;;11.40;99.90;;;;;;5075363;28;20234;-61
2021/03/28 10:05:29;;;;;;;6.13;3.20;;;11.60;99.90;;;;;;5091598;28;20218;-59
2021/03/28 10:08:05;;;;;;;7.93;3.07;;;11.70;99.90;;;;;;5092701;28;20250;-60
2021/03/28 10:11:02;;;;;;;8.93;3.50;;;11.60;99.90;;;;;;5091000;28;20310;-62
2021/03/28 10:14:06;;;;;;;5.83;3.17;;;11.80;99.90;;;;;;5074775;28;20200;-61
2021/03/28 10:16:41;;;;;;;7.00;3.03;;;11.90;99.90;;;;;;5076823;28;20199;-61
2021/03/28 10:19:17;;;;;;;4.53;2.73;;;12.30;99.90;;;;;;5092513;28;20223;-61
2021/03/28 10:22:30;;;;;;;6.83;2.60;;;12.50;99.90;;;;;;5084719;28;20215;-60
2021/03/28 10:25:27;;;;;;;7.83;3.20;;;12.40;99.90;;;;;;5091152;28;20197;-60
2021/03/28 10:28:29;;;;;;;6.70;3.53;;;12.30;99.90;;;;;;5092150;28;20202;-61
2021/03/28 10:31:12;;;;;;;6.23;3.20;;;12.30;99.90;;;;;;5082242;28;20226;-61
2021/03/28 10:33:58;;;;;;;8.90;3.90;;;12.20;99.90;;;;;;5091904;28;20634;-61
2021/03/28 10:36:39;;;;;;;7.67;3.30;;;12.30;99.90;;;;;;5095203;28;20202;-61
2021/03/28 10:39:21;;;;;;;6.67;3.30;;;12.40;99.90;;;;;;5095776;28;20242;-61
2021/03/28 10:42:19;;;;;;;4.77;2.80;;;12.50;99.90;;;;;;5095782;28;20195;-60
2021/03/28 10:45:15;;;;;;;7.27;3.60;;;12.40;99.90;;;;;;5095460;28;20292;-61
2021/03/28 10:48:31;;;;;;;6.67;3.23;;;12.40;99.90;;;;;;5093448;28;20184;-61
2021/03/28 10:51:47;;;;;;;7.00;3.30;;;12.40;99.90;;;;;;5092971;28;20249;-60
2021/03/28 10:54:39;;;;;;;8.03;3.60;;;12.50;99.90;;;;;;5092211;28;20248;-60
2021/03/28 10:57:41;;;;;;;8.13;3.10;;;12.30;99.90;;;;;;5093966;28;20202;-59
2021/03/28 11:00:54;;;;;;;8.83;3.23;;;12.30;99.90;;;;;;5094832;28;20277;-59
2021/03/28 11:04:10;;;;;;;6.20;2.90;;;12.30;99.90;;;;;;5097078;28;20188;-60
2021/03/28 11:06:53;;;;;;;7.73;2.90;;;12.40;99.90;;;;;;5099959;28;20192;-62
2021/03/28 11:09:43;;;;;;;6.40;3.00;;;12.50;99.90;;;;;;5092435;28;20188;-61
2021/03/28 11:12:36;;;;;;;3.47;2.77;;;12.60;99.90;;;;;;5088646;28;20205;-60
2021/03/28 11:15:22;;;;;;;7.27;3.07;;;12.60;99.90;;;;;;5093777;28;20184;-60
2021/03/28 11:18:14;;;;;;;5.60;3.20;;;12.50;99.90;;;;;;5095119;28;20700;-60
2021/03/28 11:20:56;;;;;;;4.83;2.90;;;12.40;99.90;;;;;;5095217;28;20272;-60
2021/03/28 11:23:52;;;;;;;9.10;3.97;;;12.20;99.90;;;;;;5089030;28;20658;-59
2021/03/28 11:26:56;;;;;;;4.80;3.33;;;12.10;99.90;;;;;;5093764;28;20220;-60
2021/03/28 11:29:39;;;;;;;6.33;2.80;;;11.90;99.90;;;;;;5091748;28;20265;-59
2021/03/28 11:32:21;;;;;;;5.23;2.90;;;11.70;99.90;;;;;;5092826;28;20219;-62
2021/03/28 11:35:14;;;;;;;9.13;3.10;;;11.70;99.90;;;;;;5076908;28;20512;-60
2021/03/28 11:37:44;;;;;;;5.67;2.87;;;11.70;99.90;;;;;;5094619;28;20697;-59
2021/03/28 11:40:32;;;;;;;3.73;2.77;;;11.80;99.90;;;;;;5095483;28;20241;-61
2021/03/28 11:43:31;;;;;;;4.07;2.87;;;12.10;99.90;;;;;;5094568;28;20730;-60
2021/03/28 11:46:24;;;;;;;7.17;3.50;;;12.20;99.90;;;;;;5095115;28;20190;-60
2021/03/28 11:49:14;;;;;;;6.33;3.20;;;12.20;99.90;;;;;;5095107;28;20234;-60
2021/03/28 11:52:15;;;;;;;8.23;3.70;;;12.10;99.90;;;;;;5094503;28;20187;-60
2021/03/28 11:54:58;;;;;;;8.93;4.20;;;11.90;99.90;;;;;;5074895;28;20275;-63
2021/03/28 11:57:31;;;;;;;6.13;3.80;;;12.00;99.90;;;;;;5074687;28;20242;-62
2021/03/28 12:00:21;;;;;;;5.70;3.40;;;11.90;99.90;;;;;;5074391;28;20772;-61
2021/03/28 12:03:33;;;;;;;7.03;3.87;;;11.80;99.90;;;;;;5091778;28;20231;-59
2021/03/28 12:06:33;;;;;;;5.30;3.70;;;11.60;99.90;;;;;;5094557;28;20212;-60
2021/03/28 12:09:03;;;;;;;7.63;3.60;;;11.50;99.90;;;;;;5088050;28;20202;-61
2021/03/28 12:11:38;;;;;;;9.00;4.57;;;11.40;99.90;;;;;;5094561;28;20206;-61
2021/03/28 12:14:25;;;;;;;6.57;3.47;;;11.40;99.90;;;;;;5088230;28;20203;-63
2021/03/28 12:17:31;;;;;;;5.57;3.30;;;11.40;99.90;;;;;;5081113;28;20192;-60
2021/03/28 12:20:22;;;;;;;6.67;3.80;;;11.50;99.90;;;;;;5089534;28;20306;-60
2021/03/28 12:22:57;;;;;;;6.60;3.30;;;11.70;99.90;;;;;;5091220;28;20203;-61
2021/03/28 12:25:32;;;;;;;4.93;3.27;;;11.80;99.90;;;;;;5091850;28;20215;-61
2021/03/28 12:28:28;;;;;;;7.47;3.20;;;12.10;99.90;;;;;;5073312;28;20188;-60
2021/03/28 12:30:56;;;;;;;7.13;3.43;;;12.30;99.90;;;;;;5072959;28;20272;-60
2021/03/28 12:33:46;;;;;;;7.30;3.83;;;12.50;99.90;;;;;;5086755;28;20200;-60
2021/03/28 12:36:17;;;;;;;5.23;3.60;;;12.70;99.90;;;;;;5093533;28;20239;-61
2021/03/28 12:38:57;;;;;;;5.97;3.37;;;12.90;99.90;;;;;;5091449;28;20223;-61
2021/03/28 12:41:32;;;;;;;8.43;3.87;;;13.00;99.90;;;;;;5081433;28;20181;-61
2021/03/28 12:44:19;;;;;;;7.33;3.60;;;13.30;99.90;;;;;;5091488;28;20514;-59
2021/03/28 12:46:55;;;;;;;7.33;3.43;;;13.50;99.90;;;;;;5093614;28;20222;-59
2021/03/28 12:49:29;;;;;;;5.03;3.33;;;13.50;99.90;;;;;;5093637;28;20279;-62
2021/03/28 12:52:18;;;;;;;5.20;3.17;;;13.50;99.90;;;;;;5093495;28;20184;-59
2021/03/28 12:55:36;;;;;;;8.57;3.97;;;13.40;99.90;;;;;;5093884;28;20651;-59
2021/03/28 12:58:14;;;;;;;4.47;3.20;;;13.40;99.90;;;;;;5093303;28;20263;-60
2021/03/28 13:00:50;;;;;;;4.60;3.38;;;13.80;99.90;;;;;;5091176;28;20192;-60
2021/03/28 13:03:27;;;;;;;4.63;3.60;;;14.00;99.90;;;;;;5093174;28;20199;-61
2021/03/28 13:06:25;;;;;;;7.27;3.97;;;14.00;99.90;;;;;;5091156;28;20188;-60
2021/03/28 13:08:57;;;;;;;5.43;3.77;;;13.70;99.90;;;;;;5090556;28;20711;-60
2021/03/28 13:11:45;;;;;;;4.17;3.30;;;13.40;99.90;;;;;;5090765;28;20534;-61
2021/03/28 13:14:34;;;;;;;6.13;4.00;;;13.30;99.90;;;;;;5091700;28;20216;-60
2021/03/28 13:17:06;;;;;;;5.70;3.93;;;13.50;99.90;;;;;;5091691;28;20189;-61
2021/03/28 13:19:36;;;;;;;7.00;3.60;;;13.60;99.90;;;;;;5092651;28;20228;-59
2021/03/28 13:22:31;;;;;;;7.82;3.80;;;13.70;99.90;;;;;;5083952;28;20275;-60
2021/03/28 13:25:24;;;;;;;7.78;3.60;;;13.70;99.90;;;;;;5091903;28;20628;-61
2021/03/28 13:28:20;;;;;;;5.97;3.67;;;13.60;99.90;;;;;;5090917;28;20207;-59
2021/03/28 13:30:49;;;;;;;6.07;3.20;;;13.50;99.90;;;;;;5090611;28;20209;-60
2021/03/28 13:33:35;;;;;;;5.90;3.40;;;13.50;99.90;;;;;;5093031;28;20223;-61
2021/03/28 13:36:15;;;;;;;6.17;3.70;;;13.60;99.90;;;;;;5092029;28;20188;-60
2021/03/28 13:38:45;;;;;;;5.03;3.13;;;13.60;99.90;;;;;;5092461;28;20687;-60
2021/03/28 13:41:25;;;;;;;4.73;3.33;;;13.50;99.90;;;;;;5093007;28;20185;-60
2021/03/28 13:44:03;;;;;;;7.90;4.20;;;13.40;99.90;;;;;;5090667;28;20659;-59
2021/03/28 13:46:31;;;;;;;6.03;3.20;;;13.40;99.90;;;;;;5090702;28;20184;-61
2021/03/28 13:49:04;;;;;;;4.70;3.30;;;13.50;99.90;;;;;;5092431;28;20674;-59
2021/03/28 13:51:32;;;;;;;5.90;3.40;;;13.50;99.90;;;;;;5090327;28;20191;-60
2021/03/28 13:54:05;;;;;;;6.63;3.70;;;13.50;99.90;;;;;;5092794;28;20615;-61
2021/03/28 13:56:48;;;;;;;6.50;3.13;;;13.40;99.90;;;;;;5090741;28;20218;-62
2021/03/28 13:59:21;;;;;;;6.03;3.87;;;13.50;99.90;;;;;;5090721;28;20793;-60
2021/03/28 14:02:02;;;;;;;6.53;3.17;;;13.70;99.90;;;;;;5091013;28;20272;-61
2021/03/28 14:04:38;;;;;;;6.27;3.10;;;13.90;99.90;;;;;;5090045;28;20710;-60
2021/03/28 14:07:21;;;;;;;5.00;2.83;;;13.70;99.90;;;;;;5088818;28;20688;-60
2021/03/28 14:09:53;;;;;;;5.20;3.10;;;13.50;99.90;;;;;;5089908;28;20728;-59
2021/03/28 14:12:32;;;;;;;4.07;2.63;;;13.50;99.90;;;;;;5090201;28;20184;-60
2021/03/28 14:15:09;;;;;;;5.70;2.80;;;13.50;99.90;;;;;;5089325;28;20289;-61
2021/03/28 14:17:37;;;;;;;3.97;2.70;;;13.60;99.90;;;;;;5088361;28;20275;-61
2021/03/28 14:20:16;;;;;;;5.03;3.03;;;13.70;99.90;;;;;;5091461;28;20245;-61
2021/03/28 14:22:47;;;;;;;4.60;2.90;;;13.70;99.90;;;;;;5081066;28;20280;-61
2021/03/28 14:25:30;;;;;;;3.83;2.83;;;13.60;99.90;;;;;;5087475;28;20319;-60
2021/03/28 14:27:58;;;;;;;3.85;2.60;;;13.70;99.90;;;;;;5091855;28;20261;-60
2021/03/28 14:30:32;;;;;;;5.37;2.70;;;13.70;99.90;;;;;;5080952;28;20267;-60
2021/03/28 14:33:05;;;;;;;5.50;2.80;;;13.50;99.90;;;;;;5091785;28;20215;-59
2021/03/28 14:35:51;;;;;;;6.15;2.55;;;13.50;99.90;;;;;;5089727;28;20230;-60
2021/03/28 14:38:39;;;;;;;4.97;2.57;;;13.60;99.90;;;;;;5089596;28;20188;-60
2021/03/28 14:41:19;;;;;;;5.38;2.88;;;13.70;99.90;;;;;;5089974;28;20267;-60